FW4421 Weather Reports


Display with metric or nautical units.
time (UTC)temp
F
wind
direction
speed
MPH
gust
MPH
rain 1hr
in
rain 24hr
in
rain mn
in
humidity
%
barometer
mb
20220626174000 79 179 8.0 14.0 0.00 0.00 0.00 69 1014.4
20220626173000 80 156 9.0 10.0 0.00 0.00 0.00 67 1014.3
20220626172000 81 192 7.0 9.0 0.00 0.00 0.00 65 1014.4
20220626171000 81 165 7.0 7.0 0.00 0.00 0.00 64 1014.3
20220626170000 82 113 7.0 9.0 0.00 0.00 0.00 61 1014.2
20220626165000 83 126 7.0 9.0 0.00 0.00 0.00 61 1014.1
20220626164000 83 162 8.0 9.0 0.00 0.00 0.00 61 1013.8
20220626163000 83 227 7.0 9.0 0.00 0.00 0.00 61 1013.2
20220626162000 84 288 8.0 9.0 0.00 0.00 0.00 59 1013.5
20220626161000 84 143 8.0 9.0 0.00 0.01 0.00 60 1013.6
20220626160000 84 195 8.0 8.0 0.00 0.01 0.00 60 1013.4
20220626154959 84 198 8.0 8.0 0.00 0.01 0.00 58 1013.3
20220626154000 85 193 8.0 9.0 0.00 0.01 0.00 55 1013.2
20220626153000 86 202 7.0 8.0 0.00 0.01 0.00 54 1013.3
20220626151959 87 157 7.0 7.0 0.00 0.01 0.00 53 1013.2
20220626151000 88 226 7.0 7.0 0.00 0.01 0.00 51 1013.3
20220626145959 88 149 7.0 7.0 0.00 0.01 0.00 49 1013.3
20220626145000 87 169 7.0 10.0 0.00 0.01 0.00 50 1013.3
20220626143959 87 186 8.0 10.0 0.00 0.01 0.00 50 1013.4
20220626142959 87 102 7.0 8.0 0.00 0.01 0.00 51 1013.5
20220626141959 88 270 9.0 11.0 0.00 0.01 0.00 50 1013.5
20220626141000 88 135 8.0 10.0 0.00 0.01 0.00 49 1013.5
20220626135959 88 146 8.0 10.0 0.00 0.01 0.00 47 1013.6
20220626134959 89 242 8.0 10.0 0.00 0.01 0.00 44 1013.6
20220626133959 88 153 8.0 10.0 0.00 0.01 0.00 46 1013.7
20220626132959 89 246 6.0 6.0 0.00 0.01 0.00 44 1013.7
20220626131959 88 189 8.0 9.0 0.00 0.01 0.00 44 1013.7
20220626130959 88 142 8.0 10.0 0.00 0.01 0.00 42 1013.7
20220626125959 93 209 5.0 7.0 0.00 0.01 0.00 31 1013.5
20220626125000 95 194 4.0 5.0 0.00 0.01 0.00 29 1013.5
20220626123959 93 225 5.0 6.0 0.00 0.01 0.00 29 1013.6
20220626122959 95 91 5.0 6.0 0.00 0.01 0.00 29 1013.6
20220626121959 94 146 5.0 6.0 0.00 0.01 0.00 29 1013.7
20220626121000 93 328 5.0 6.0 0.00 0.01 0.00 30 1013.8
20220626115959 92 122 7.0 7.0 0.00 0.01 0.00 31 1013.8
20220626114959 90 70 6.0 7.0 0.00 0.01 0.00 32 1013.8
20220626113959 91 244 7.0 8.0 0.00 0.01 0.00 32 1014.0
20220626112959 91 200 7.0 8.0 0.00 0.01 0.00 33 1013.9
20220626111959 89 69 7.0 8.0 0.00 0.01 0.00 35 1013.8
20220626110959 90 7 6.0 8.0 0.00 0.01 0.00 33 1014.1
20220626105959 89 88 4.0 6.0 0.00 0.01 0.00 37 1014.1
20220626104959 89 273 6.0 6.0 0.00 0.01 0.00 39 1014.1
20220626103959 91 166 5.0 6.0 0.00 0.01 0.00 35 1014.1
20220626102959 89 178 7.0 7.0 0.00 0.01 0.00 36 1014.0
20220626101959 88 127 6.0 8.0 0.00 0.01 0.00 38 1014.1
20220626100959 87 163 6.0 7.0 0.00 0.01 0.00 40 1014.2
20220626095959 88 171 6.0 8.0 0.00 0.01 0.00 40 1014.2
20220626094959 86 118 8.0 8.0 0.00 0.01 0.00 43 1014.3
20220626093959 85 124 8.0 11.0 0.00 0.01 0.00 43 1014.4
20220626092959 88 104 7.0 10.0 0.00 0.01 0.00 42 1014.3
20220626091959 87 331 9.0 10.0 0.00 0.01 0.00 32 1014.2
20220626090959 88 311 6.0 6.0 0.00 0.01 0.00 32 1014.2
20220626085959 86 308 5.0 7.0 0.00 0.01 0.00 34 1014.1
20220626084959 87 300 6.0 7.0 0.00 0.01 0.00 32 1014.1
20220626083959 88 313 5.0 7.0 0.00 0.01 0.00 32 1014.2
20220626082959 87 331 6.0 8.0 0.00 0.01 0.00 34 1014.2
20220626081959 85 292 5.0 7.0 0.00 0.01 0.00 35 1014.3
20220626080959 85 296 5.0 6.0 0.00 0.01 0.00 38 1014.3
20220626075959 84 308 6.0 6.0 0.00 0.01 0.00 39 1014.3
20220626074959 84 343 6.0 6.0 0.00 0.01 0.00 40 1014.3
20220626073959 85 3 6.0 6.0 0.00 0.01 0.00 39 1014.3
20220626072959 84 357 7.0 7.0 0.00 0.01 0.00 40 1014.3
20220626071959 83 352 6.0 7.0 0.00 0.01 0.00 42 1014.4
20220626070959 84 326 4.0 5.0 0.00 0.01 0.00 42 1014.4
20220626065959 83 334 5.0 7.0 0.00 0.01 0.00 45 1014.5
20220626064959 83 342 7.0 7.0 0.00 0.01 0.00 46 1014.6
20220626063959 85 10 4.0 6.0 0.00 0.01 0.00 43 1014.7
20220626062959 83 5 4.0 5.0 0.00 0.01 0.00 44 1014.6
20220626061959 84 35 5.0 5.0 0.00 0.01 0.00 43 1014.6
20220626060959 80 33 6.0 7.0 0.00 0.01 0.00 48 1014.5
20220626055959 82 28 5.0 5.0 0.00 0.01 0.00 46 1014.5
20220626054959 82 23 5.0 6.0 0.00 0.01 0.00 46 1014.5
20220626053959 80 1 5.0 6.0 0.00 0.01 0.00 48 1014.4
20220626052959 79 359 4.0 5.0 0.00 0.01 0.00 50 1014.4
20220626051959 80 1 4.0 6.0 0.00 0.01 0.00 50 1014.2
20220626050959 80 6 3.0 5.0 0.00 0.01 0.00 52 1014.2
20220626045959 78 6 4.0 5.0 0.00 0.01 0.00 53 1014.0
20220626044959 78 9 5.0 5.0 0.00 0.01 0.00 54 1014.1
20220626043959 77 351 4.0 4.0 0.00 0.01 0.00 56 1014.1
20220626042959 77 5 3.0 4.0 0.00 0.01 0.00 56 1014.0
20220626041958 76 18 3.0 4.0 0.00 0.01 0.00 59 1014.0
20220626040959 75 2 4.0 4.0 0.00 0.01 0.00 60 1014.0
20220626035959 74 11 4.0 5.0 0.00 0.01 0.00 62 1014.0
20220626034958 73 13 4.0 5.0 0.00 0.01 0.00 64 1014.0
20220626033959 73 359 3.0 4.0 0.00 0.01 0.00 64 1014.1
20220626032959 72 340 3.0 3.0 0.00 0.01 0.00 65 1014.1
20220626031959 72 345 4.0 4.0 0.00 0.01 0.00 66 1014.1
20220626030958 72 33 5.0 6.0 0.00 0.01 0.00 67 1013.9
20220626025958 71 19 7.0 7.0 0.00 0.01 0.00 68 1013.9
20220626024959 71 357 7.0 7.0 0.00 0.01 0.00 70 1013.9
20220626023958 71 358 6.0 8.0 0.00 0.01 0.00 69 1013.9
20220626022958 72 326 4.0 6.0 0.00 0.01 0.00 66 1013.8
20220626021959 73 7 5.0 6.0 0.00 0.01 0.00 63 1013.8
20220626020959 74 2 4.0 4.0 0.00 0.01 0.00 59 1013.6
20220626015959 75 314 3.0 4.0 0.00 0.01 0.00 57 1013.6
20220626014959 75 303 3.0 3.0 0.00 0.01 0.00 57 1013.6
20220626013958 75 254 3.0 4.0 0.00 0.01 0.00 57 1013.6
20220626012958 75 280 3.0 4.0 0.00 0.01 0.00 56 1013.4
20220626011958 76 243 2.0 4.0 0.00 0.01 0.00 53 1013.4
20220626010959 75 199 5.0 11.0 0.00 0.01 0.00 56 1013.5
20220626005958 75 305 11.0 11.0 0.00 0.01 0.00 57 1013.5
20220626004959 74 357 9.0 11.0 0.00 0.01 0.00 59 1013.4
20220626003958 74 11 9.0 10.0 0.00 0.01 0.00 59 1013.5
20220626002958 74 11 10.0 11.0 0.00 0.01 0.00 60 1013.6
20220626001958 73 14 9.0 10.0 0.00 0.01 0.00 61 1013.4
20220626000958 73 16 10.0 11.0 0.00 0.01 0.00 63 1013.4
20220625235958 73 8 10.0 11.0 0.00 0.01 0.00 64 1013.5
20220625234958 74 11 10.0 13.0 0.00 0.01 0.00 59 1013.7
20220625233958 75 9 11.0 13.0 0.00 0.01 0.00 56 1013.7
20220625232958 75 28 10.0 13.0 0.00 0.01 0.00 56 1013.2
20220625231958 76 51 12.0 14.0 0.00 0.01 0.00 55 1012.8
20220625230958 76 42 13.0 14.0 0.00 0.01 0.00 54 1012.5
20220625225958 77 51 11.0 12.0 0.00 0.01 0.00 52 1012.3
20220625224958 77 24 11.0 12.0 0.00 0.01 0.00 52 1012.2
20220625223959 77 19 11.0 13.0 0.00 0.01 0.00 52 1012.1
20220625222958 77 352 16.0 19.0 0.00 0.01 0.00 53 1012.0
20220625221958 76 23 18.0 19.0 0.00 0.01 0.00 55 1011.9
20220625220958 76 314 13.0 16.0 0.00 0.01 0.00 58 1011.6
20220625215958 76 33 16.0 16.0 0.00 0.01 0.00 59 1011.8
20220625214958 76 31 14.0 14.0 0.00 0.01 0.00 58 1011.6
20220625213959 76 316 15.0 18.0 0.00 0.01 0.00 59 1011.9
20220625212958 77 323 17.0 19.0 0.00 0.01 0.00 58 1011.7
20220625211958 77 296 15.0 19.0 0.00 0.01 0.00 58 1011.9
20220625210958 78 75 10.0 12.0 0.00 0.01 0.00 55 1011.8
20220625210000 79 315 11.0 12.0 0.00 0.01 0.00 53 1011.7
20220625204958 78 348 8.0 12.0 0.00 0.01 0.01 55 1011.8
20220625203958 79 64 2.0 4.0 0.00 0.01 0.01 64 1011.6
20220625202958 79 155 2.0 2.0 0.00 0.01 0.01 64 1011.4
20220625201958 79 162 4.0 5.0 0.00 0.01 0.01 63 1011.0
20220625200958 80 315 4.0 7.0 0.00 0.01 0.01 60 1011.0
20220625195958 81 284 3.0 3.0 0.00 0.01 0.01 57 1011.0
20220625194958 82 212 3.0 4.0 0.00 0.01 0.01 54 1011.0
20220625193958 82 209 4.0 5.0 0.00 0.01 0.01 52 1011.0
20220625192958 82 120 3.0 4.0 0.00 0.01 0.01 52 1011.0
20220625191958 82 114 3.0 5.0 0.00 0.01 0.01 54 1011.3
20220625190958 82 122 5.0 5.0 0.00 0.01 0.01 54 1011.3
20220625185958 82 128 4.0 5.0 0.00 0.01 0.01 55 1011.1
20220625184958 82 205 3.0 4.0 0.00 0.01 0.01 56 1011.0
20220625183958 82 122 4.0 6.0 0.00 0.01 0.01 56 1010.8
20220625182958 82 111 6.0 8.0 0.00 0.01 0.01 56 1010.8
20220625181958 82 160 7.0 10.0 0.00 0.01 0.01 57 1010.8
20220625180958 82 133 9.0 10.0 0.00 0.01 0.01 56 1010.6
20220625175958 82 137 8.0 10.0 0.00 0.01 0.01 54 1010.6
20220625174958 83 172 7.0 9.0 0.00 0.01 0.01 51 1010.5